sensor_id;sensor_type;location;lat;lon;timestamp;pressure;altitude;pressure_sealevel;temperature;humidity
19783;BME280;10051;40.294;-3.754;2023-01-19T00:00:11;94308.63;;;5.12;57.87
19783;BME280;10051;40.294;-3.754;2023-01-19T00:02:39;94246.91;;;4.79;58.26
19783;BME280;10051;40.294;-3.754;2023-01-19T00:05:06;94314.69;;;5.18;58.45
19783;BME280;10051;40.294;-3.754;2023-01-19T00:07:32;94308.00;;;5.05;58.81
19783;BME280;10051;40.294;-3.754;2023-01-19T00:09:58;94288.59;;;4.79;58.54
19783;BME280;10051;40.294;-3.754;2023-01-19T00:12:24;94270.53;;;4.72;58.76
19783;BME280;10051;40.294;-3.754;2023-01-19T00:14:50;94307.13;;;4.99;58.76
19783;BME280;10051;40.294;-3.754;2023-01-19T00:17:16;94288.94;;;4.82;58.87
19783;BME280;10051;40.294;-3.754;2023-01-19T00:19:41;94306.66;;;5.02;59.15
19783;BME280;10051;40.294;-3.754;2023-01-19T00:22:07;94286.47;;;4.75;59.72
19783;BME280;10051;40.294;-3.754;2023-01-19T00:24:32;94310.72;;;4.76;59.56
19783;BME280;10051;40.294;-3.754;2023-01-19T00:26:58;94307.72;;;4.84;59.44
19783;BME280;10051;40.294;-3.754;2023-01-19T00:29:26;94175.97;;;3.98;58.88
19783;BME280;10051;40.294;-3.754;2023-01-19T00:31:55;94280.78;;;4.61;59.18
19783;BME280;10051;40.294;-3.754;2023-01-19T00:34:20;94208.50;;;4.00;58.79
19783;BME280;10051;40.294;-3.754;2023-01-19T00:36:46;94280.25;;;4.42;58.92
19783;BME280;10051;40.294;-3.754;2023-01-19T00:39:11;94325.88;;;4.79;58.66
19783;BME280;10051;40.294;-3.754;2023-01-19T00:41:37;94182.34;;;3.90;58.46
19783;BME280;10051;40.294;-3.754;2023-01-19T00:44:21;94209.97;;;4.08;58.17
19783;BME280;10051;40.294;-3.754;2023-01-19T00:46:46;94222.34;;;4.18;57.54
19783;BME280;10051;40.294;-3.754;2023-01-19T00:49:12;94276.63;;;4.43;57.99
19783;BME280;10051;40.294;-3.754;2023-01-19T00:51:37;94276.78;;;4.37;58.03
19783;BME280;10051;40.294;-3.754;2023-01-19T00:54:03;94269.09;;;4.30;57.29
19783;BME280;10051;40.294;-3.754;2023-01-19T00:56:30;94183.03;;;3.85;57.37
19783;BME280;10051;40.294;-3.754;2023-01-19T00:58:56;94282.75;;;4.71;56.47
19783;BME280;10051;40.294;-3.754;2023-01-19T01:01:21;94190.63;;;4.04;57.04
19783;BME280;10051;40.294;-3.754;2023-01-19T01:03:47;94217.75;;;4.08;56.69
19783;BME280;10051;40.294;-3.754;2023-01-19T01:06:12;94315.84;;;4.71;57.76
19783;BME280;10051;40.294;-3.754;2023-01-19T01:08:38;94193.78;;;4.06;57.50
19783;BME280;10051;40.294;-3.754;2023-01-19T01:11:04;94248.19;;;4.42;57.30
19783;BME280;10051;40.294;-3.754;2023-01-19T01:13:29;94299.00;;;4.79;57.10
19783;BME280;10051;40.294;-3.754;2023-01-19T01:15:55;94271.56;;;4.54;57.46
19783;BME280;10051;40.294;-3.754;2023-01-19T01:18:22;94218.41;;;4.15;57.71
19783;BME280;10051;40.294;-3.754;2023-01-19T01:20:48;94317.50;;;4.94;56.86
19783;BME280;10051;40.294;-3.754;2023-01-19T01:23:14;94203.38;;;4.23;56.99
19783;BME280;10051;40.294;-3.754;2023-01-19T01:25:40;94312.75;;;4.91;56.38
19783;BME280;10051;40.294;-3.754;2023-01-19T01:28:07;94306.28;;;4.76;56.41
19783;BME280;10051;40.294;-3.754;2023-01-19T01:30:34;94328.53;;;5.01;56.08
19783;BME280;10051;40.294;-3.754;2023-01-19T01:33:00;94220.66;;;4.29;56.29
19783;BME280;10051;40.294;-3.754;2023-01-19T01:35:26;94290.19;;;4.63;56.35
19783;BME280;10051;40.294;-3.754;2023-01-19T01:37:52;94325.53;;;4.93;56.25
19783;BME280;10051;40.294;-3.754;2023-01-19T01:40:21;94314.97;;;4.99;55.57
19783;BME280;10051;40.294;-3.754;2023-01-19T01:42:47;94337.66;;;5.21;55.03
19783;BME280;10051;40.294;-3.754;2023-01-19T01:48:04;94259.84;;;4.73;54.45
19783;BME280;10051;40.294;-3.754;2023-01-19T01:50:40;94230.22;;;4.40;54.46
19783;BME280;10051;40.294;-3.754;2023-01-19T01:53:29;94354.72;;;5.12;54.81
19783;BME280;10051;40.294;-3.754;2023-01-19T01:55:58;94353.63;;;5.25;54.97
19783;BME280;10051;40.294;-3.754;2023-01-19T01:58:24;94269.81;;;4.59;55.01
19783;BME280;10051;40.294;-3.754;2023-01-19T02:00:50;94287.84;;;4.61;55.57
19783;BME280;10051;40.294;-3.754;2023-01-19T02:03:34;94310.22;;;4.45;56.33
19783;BME280;10051;40.294;-3.754;2023-01-19T02:06:03;94316.41;;;4.56;56.05
19783;BME280;10051;40.294;-3.754;2023-01-19T02:08:34;94360.94;;;5.05;55.78
19783;BME280;10051;40.294;-3.754;2023-01-19T02:11:20;94366.44;;;4.92;56.02
19783;BME280;10051;40.294;-3.754;2023-01-19T02:14:05;94332.97;;;4.67;55.89
19783;BME280;10051;40.294;-3.754;2023-01-19T02:16:31;94362.34;;;4.79;56.76
19783;BME280;10051;40.294;-3.754;2023-01-19T02:18:57;94318.00;;;4.28;57.22
19783;BME280;10051;40.294;-3.754;2023-01-19T02:21:45;94287.00;;;4.09;57.12
19783;BME280;10051;40.294;-3.754;2023-01-19T02:24:16;94349.34;;;4.33;58.20
19783;BME280;10051;40.294;-3.754;2023-01-19T02:26:44;94353.59;;;4.22;58.88
19783;BME280;10051;40.294;-3.754;2023-01-19T02:29:14;94330.50;;;3.97;59.10
19783;BME280;10051;40.294;-3.754;2023-01-19T02:31:41;94268.69;;;3.46;59.46
19783;BME280;10051;40.294;-3.754;2023-01-19T02:34:09;94362.84;;;4.01;60.29
19783;BME280;10051;40.294;-3.754;2023-01-19T02:39:19;94356.38;;;4.04;60.39
19783;BME280;10051;40.294;-3.754;2023-01-19T02:41:52;94361.63;;;4.21;59.10
19783;BME280;10051;40.294;-3.754;2023-01-19T02:44:20;94348.22;;;4.29;58.05
19783;BME280;10051;40.294;-3.754;2023-01-19T02:46:47;94368.56;;;4.61;56.80
19783;BME280;10051;40.294;-3.754;2023-01-19T02:49:12;94372.34;;;4.70;57.19
19783;BME280;10051;40.294;-3.754;2023-01-19T02:51:38;94317.50;;;4.60;56.40
19783;BME280;10051;40.294;-3.754;2023-01-19T02:57:25;94350.34;;;4.95;56.89
19783;BME280;10051;40.294;-3.754;2023-01-19T03:08:40;94360.13;;;4.88;56.64
19783;BME280;10051;40.294;-3.754;2023-01-19T03:11:10;94252.16;;;4.10;57.07
19783;BME280;10051;40.294;-3.754;2023-01-19T03:16:40;94328.53;;;4.67;57.02
19783;BME280;10051;40.294;-3.754;2023-01-19T03:19:17;94353.97;;;4.94;57.45
19783;BME280;10051;40.294;-3.754;2023-01-19T03:21:47;94320.34;;;4.58;57.55
19783;BME280;10051;40.294;-3.754;2023-01-19T03:24:14;94257.75;;;4.36;57.15
19783;BME280;10051;40.294;-3.754;2023-01-19T03:26:47;94356.81;;;4.93;57.22
19783;BME280;10051;40.294;-3.754;2023-01-19T03:29:14;94352.06;;;4.72;58.18
19783;BME280;10051;40.294;-3.754;2023-01-19T03:31:47;94298.28;;;4.32;58.34
19783;BME280;10051;40.294;-3.754;2023-01-19T03:34:15;94254.00;;;3.98;58.28
19783;BME280;10051;40.294;-3.754;2023-01-19T03:36:44;94357.81;;;4.74;58.67
19783;BME280;10051;40.294;-3.754;2023-01-19T03:39:15;94220.47;;;3.84;58.14
19783;BME280;10051;40.294;-3.754;2023-01-19T03:41:46;94343.69;;;4.70;58.04
19783;BME280;10051;40.294;-3.754;2023-01-19T03:44:15;94350.66;;;4.65;58.33
19783;BME280;10051;40.294;-3.754;2023-01-19T03:46:41;94267.13;;;4.03;58.36
19783;BME280;10051;40.294;-3.754;2023-01-19T03:49:08;94263.88;;;3.96;58.44
19783;BME280;10051;40.294;-3.754;2023-01-19T03:51:35;94346.53;;;4.52;58.66
19783;BME280;10051;40.294;-3.754;2023-01-19T03:54:02;94321.72;;;4.32;59.16
19783;BME280;10051;40.294;-3.754;2023-01-19T03:56:31;94248.16;;;3.91;58.52
19783;BME280;10051;40.294;-3.754;2023-01-19T03:58:56;94277.84;;;4.24;58.44
19783;BME280;10051;40.294;-3.754;2023-01-19T04:01:22;94258.13;;;4.11;57.99
19783;BME280;10051;40.294;-3.754;2023-01-19T04:03:50;94342.91;;;4.53;58.23
19783;BME280;10051;40.294;-3.754;2023-01-19T04:06:17;94252.91;;;4.11;57.50
19783;BME280;10051;40.294;-3.754;2023-01-19T04:08:43;94354.28;;;4.81;58.00
19783;BME280;10051;40.294;-3.754;2023-01-19T04:11:08;94361.94;;;4.70;57.96
19783;BME280;10051;40.294;-3.754;2023-01-19T04:13:34;94357.63;;;4.76;58.16
19783;BME280;10051;40.294;-3.754;2023-01-19T04:16:01;94260.66;;;4.23;57.17
19783;BME280;10051;40.294;-3.754;2023-01-19T04:18:29;94351.47;;;4.82;57.38
19783;BME280;10051;40.294;-3.754;2023-01-19T04:20:59;94343.78;;;4.75;57.62
19783;BME280;10051;40.294;-3.754;2023-01-19T04:23:25;94214.25;;;3.85;56.81
19783;BME280;10051;40.294;-3.754;2023-01-19T04:25:59;94325.38;;;4.65;56.72
19783;BME280;10051;40.294;-3.754;2023-01-19T04:28:26;94348.97;;;4.93;56.71
19783;BME280;10051;40.294;-3.754;2023-01-19T04:30:51;94314.66;;;4.79;56.24
19783;BME280;10051;40.294;-3.754;2023-01-19T04:33:20;94338.81;;;4.74;56.85
19783;BME280;10051;40.294;-3.754;2023-01-19T04:35:47;94288.59;;;4.44;56.69
19783;BME280;10051;40.294;-3.754;2023-01-19T04:38:13;94371.41;;;4.94;56.96
19783;BME280;10051;40.294;-3.754;2023-01-19T04:40:39;94359.19;;;4.77;57.20
19783;BME280;10051;40.294;-3.754;2023-01-19T04:43:06;94226.41;;;3.97;57.14
19783;BME280;10051;40.294;-3.754;2023-01-19T04:45:32;94311.66;;;4.53;57.41
19783;BME280;10051;40.294;-3.754;2023-01-19T04:47:57;94374.00;;;4.94;57.21
19783;BME280;10051;40.294;-3.754;2023-01-19T04:50:23;94346.53;;;4.86;57.02
19783;BME280;10051;40.294;-3.754;2023-01-19T04:52:49;94246.47;;;4.13;57.36
19783;BME280;10051;40.294;-3.754;2023-01-19T04:55:14;94374.97;;;4.87;57.59
19783;BME280;10051;40.294;-3.754;2023-01-19T04:57:40;94283.63;;;4.26;57.11
19783;BME280;10051;40.294;-3.754;2023-01-19T05:00:07;94319.69;;;4.34;57.54
19783;BME280;10051;40.294;-3.754;2023-01-19T05:02:33;94389.50;;;4.83;56.99
19783;BME280;10051;40.294;-3.754;2023-01-19T05:04:59;94276.59;;;4.09;57.17
19783;BME280;10051;40.294;-3.754;2023-01-19T05:07:25;94323.09;;;4.52;56.93
19783;BME280;10051;40.294;-3.754;2023-01-19T05:09:51;94365.34;;;4.88;56.87
19783;BME280;10051;40.294;-3.754;2023-01-19T05:12:16;94283.88;;;4.24;56.82
19783;BME280;10051;40.294;-3.754;2023-01-19T05:14:42;94347.56;;;4.68;56.69
19783;BME280;10051;40.294;-3.754;2023-01-19T05:17:08;94344.25;;;4.55;57.01
19783;BME280;10051;40.294;-3.754;2023-01-19T05:19:34;94393.44;;;5.03;57.20
19783;BME280;10051;40.294;-3.754;2023-01-19T05:22:01;94374.97;;;4.87;57.19
19783;BME280;10051;40.294;-3.754;2023-01-19T05:24:27;94255.59;;;3.99;56.95
19783;BME280;10051;40.294;-3.754;2023-01-19T05:26:52;94329.63;;;4.37;57.76
19783;BME280;10051;40.294;-3.754;2023-01-19T05:29:18;94276.75;;;4.20;57.53
19783;BME280;10051;40.294;-3.754;2023-01-19T05:31:43;94384.59;;;4.87;57.41
19783;BME280;10051;40.294;-3.754;2023-01-19T05:34:10;94316.53;;;4.32;57.49
19783;BME280;10051;40.294;-3.754;2023-01-19T05:36:36;94352.94;;;4.61;57.56
19783;BME280;10051;40.294;-3.754;2023-01-19T05:39:02;94395.03;;;4.87;57.47
19783;BME280;10051;40.294;-3.754;2023-01-19T05:41:30;94344.03;;;4.57;57.42
19783;BME280;10051;40.294;-3.754;2023-01-19T05:43:55;94309.91;;;4.24;57.80
19783;BME280;10051;40.294;-3.754;2023-01-19T05:46:21;94391.16;;;4.72;57.97
19783;BME280;10051;40.294;-3.754;2023-01-19T05:48:47;94352.69;;;4.45;57.83
19783;BME280;10051;40.294;-3.754;2023-01-19T05:51:13;94316.91;;;4.24;58.20
19783;BME280;10051;40.294;-3.754;2023-01-19T05:53:39;94320.72;;;4.33;57.41
19783;BME280;10051;40.294;-3.754;2023-01-19T05:56:08;94351.00;;;4.22;58.83
19783;BME280;10051;40.294;-3.754;2023-01-19T05:58:37;94340.66;;;4.27;58.13
19783;BME280;10051;40.294;-3.754;2023-01-19T06:01:08;94358.44;;;4.47;58.07
19783;BME280;10051;40.294;-3.754;2023-01-19T06:03:35;94404.91;;;4.85;57.96
19783;BME280;10051;40.294;-3.754;2023-01-19T06:06:02;94407.88;;;4.76;57.16
19783;BME280;10051;40.294;-3.754;2023-01-19T06:08:28;94405.84;;;4.79;57.09
19783;BME280;10051;40.294;-3.754;2023-01-19T06:10:53;94404.34;;;4.83;56.42
19783;BME280;10051;40.294;-3.754;2023-01-19T06:13:19;94312.94;;;4.04;57.09
19783;BME280;10051;40.294;-3.754;2023-01-19T06:15:45;94418.94;;;4.67;57.62
19783;BME280;10051;40.294;-3.754;2023-01-19T06:18:11;94418.41;;;4.82;56.59
19783;BME280;10051;40.294;-3.754;2023-01-19T06:20:39;94425.34;;;4.76;56.89
19783;BME280;10051;40.294;-3.754;2023-01-19T06:23:05;94397.06;;;4.68;56.96
19783;BME280;10051;40.294;-3.754;2023-01-19T06:25:30;94393.16;;;4.53;56.91
19783;BME280;10051;40.294;-3.754;2023-01-19T06:27:56;94314.25;;;4.07;56.36
19783;BME280;10051;40.294;-3.754;2023-01-19T06:30:21;94433.25;;;4.81;56.71
19783;BME280;10051;40.294;-3.754;2023-01-19T06:32:47;94390.81;;;4.52;56.97
19783;BME280;10051;40.294;-3.754;2023-01-19T06:35:13;94342.88;;;4.19;57.09
19783;BME280;10051;40.294;-3.754;2023-01-19T06:37:39;94357.63;;;4.30;56.77
19783;BME280;10051;40.294;-3.754;2023-01-19T06:40:06;94368.38;;;4.34;57.11
19783;BME280;10051;40.294;-3.754;2023-01-19T06:42:32;94387.25;;;4.41;57.35
19783;BME280;10051;40.294;-3.754;2023-01-19T06:44:57;94381.06;;;4.30;57.31
19783;BME280;10051;40.294;-3.754;2023-01-19T06:47:23;94375.84;;;4.30;57.81
19783;BME280;10051;40.294;-3.754;2023-01-19T06:49:49;94344.09;;;4.16;56.72
19783;BME280;10051;40.294;-3.754;2023-01-19T06:52:14;94425.38;;;4.64;57.59
19783;BME280;10051;40.294;-3.754;2023-01-19T06:54:42;94385.41;;;4.41;56.88
19783;BME280;10051;40.294;-3.754;2023-01-19T06:57:08;94422.78;;;4.64;57.20
19783;BME280;10051;40.294;-3.754;2023-01-19T06:59:35;94401.03;;;4.41;57.48
19783;BME280;10051;40.294;-3.754;2023-01-19T07:02:00;94397.78;;;4.34;57.35
19783;BME280;10051;40.294;-3.754;2023-01-19T07:04:26;94329.28;;;3.87;57.13
19783;BME280;10051;40.294;-3.754;2023-01-19T07:06:51;94320.69;;;3.87;57.19
19783;BME280;10051;40.294;-3.754;2023-01-19T07:09:17;94446.63;;;4.56;58.02
19783;BME280;10051;40.294;-3.754;2023-01-19T07:11:45;94409.97;;;4.45;58.08
19783;BME280;10051;40.294;-3.754;2023-01-19T07:14:11;94442.38;;;4.67;58.02
19783;BME280;10051;40.294;-3.754;2023-01-19T07:16:36;94419.13;;;4.48;57.83
19783;BME280;10051;40.294;-3.754;2023-01-19T07:19:02;94413.09;;;4.30;57.98
19783;BME280;10051;40.294;-3.754;2023-01-19T07:21:28;94349.06;;;3.89;57.99
19783;BME280;10051;40.294;-3.754;2023-01-19T07:23:54;94444.38;;;4.47;58.07
19783;BME280;10051;40.294;-3.754;2023-01-19T07:26:20;94456.75;;;4.69;57.64
19783;BME280;10051;40.294;-3.754;2023-01-19T07:28:47;94465.53;;;4.51;57.90
19783;BME280;10051;40.294;-3.754;2023-01-19T07:31:12;94376.06;;;3.99;58.26
19783;BME280;10051;40.294;-3.754;2023-01-19T07:33:38;94377.19;;;4.04;57.58
19783;BME280;10051;40.294;-3.754;2023-01-19T07:36:07;94462.75;;;4.70;57.32
19783;BME280;10051;40.294;-3.754;2023-01-19T07:38:33;94416.28;;;4.21;57.77
19783;BME280;10051;40.294;-3.754;2023-01-19T07:41:03;94366.06;;;3.79;58.17
19783;BME280;10051;40.294;-3.754;2023-01-19T07:43:29;94480.59;;;4.61;57.79
19783;BME280;10051;40.294;-3.754;2023-01-19T07:45:59;94395.28;;;4.10;57.29
19783;BME280;10051;40.294;-3.754;2023-01-19T07:48:29;94464.81;;;4.68;57.59
19783;BME280;10051;40.294;-3.754;2023-01-19T07:51:01;94394.94;;;4.19;57.23
19783;BME280;10051;40.294;-3.754;2023-01-19T07:53:30;94483.75;;;4.63;57.24
19783;BME280;10051;40.294;-3.754;2023-01-19T07:55:56;94448.28;;;4.33;57.99
19783;BME280;10051;40.294;-3.754;2023-01-19T07:58:23;94436.84;;;4.34;57.73
19783;BME280;10051;40.294;-3.754;2023-01-19T08:00:49;94473.34;;;4.51;58.22
19783;BME280;10051;40.294;-3.754;2023-01-19T08:03:17;94419.22;;;4.24;58.27
19783;BME280;10051;40.294;-3.754;2023-01-19T08:05:44;94468.84;;;4.46;58.06
19783;BME280;10051;40.294;-3.754;2023-01-19T08:08:09;94413.50;;;4.10;58.69
19783;BME280;10051;40.294;-3.754;2023-01-19T08:10:37;94499.03;;;4.59;58.67
19783;BME280;10051;40.294;-3.754;2023-01-19T08:13:03;94375.38;;;3.75;59.00
19783;BME280;10051;40.294;-3.754;2023-01-19T08:15:28;94453.47;;;4.33;58.83
19783;BME280;10051;40.294;-3.754;2023-01-19T08:17:59;94512.09;;;4.47;59.96
19783;BME280;10051;40.294;-3.754;2023-01-19T08:20:26;94447.91;;;4.12;59.37
19783;BME280;10051;40.294;-3.754;2023-01-19T08:22:53;94516.69;;;4.57;59.56
19783;BME280;10051;40.294;-3.754;2023-01-19T08:25:44;94485.13;;;4.54;59.37
19783;BME280;10051;40.294;-3.754;2023-01-19T08:28:12;94448.75;;;4.30;59.78
19783;BME280;10051;40.294;-3.754;2023-01-19T08:30:39;94510.41;;;4.70;59.47
19783;BME280;10051;40.294;-3.754;2023-01-19T08:33:05;94448.00;;;4.46;58.99
19783;BME280;10051;40.294;-3.754;2023-01-19T08:35:36;94449.22;;;4.56;59.03
19783;BME280;10051;40.294;-3.754;2023-01-19T08:38:05;94500.19;;;4.81;58.67
19783;BME280;10051;40.294;-3.754;2023-01-19T08:40:33;94515.56;;;4.94;58.51
19783;BME280;10051;40.294;-3.754;2023-01-19T08:42:59;94375.13;;;4.18;57.87
19783;BME280;10051;40.294;-3.754;2023-01-19T08:45:28;94522.13;;;5.14;57.92
19783;BME280;10051;40.294;-3.754;2023-01-19T08:47:55;94382.25;;;4.39;57.98
19783;BME280;10051;40.294;-3.754;2023-01-19T08:50:27;94389.78;;;4.53;57.64
19783;BME280;10051;40.294;-3.754;2023-01-19T08:52:56;94503.41;;;5.34;57.43
19783;BME280;10051;40.294;-3.754;2023-01-19T08:55:23;94390.91;;;4.57;56.95
19783;BME280;10051;40.294;-3.754;2023-01-19T08:57:55;94495.13;;;5.54;56.31
19783;BME280;10051;40.294;-3.754;2023-01-19T09:00:22;94468.75;;;5.33;56.29
19783;BME280;10051;40.294;-3.754;2023-01-19T09:02:49;94484.28;;;5.45;56.10
19783;BME280;10051;40.294;-3.754;2023-01-19T09:05:15;94520.25;;;5.60;56.45
19783;BME280;10051;40.294;-3.754;2023-01-19T09:07:45;94407.81;;;4.88;56.42
19783;BME280;10051;40.294;-3.754;2023-01-19T09:10:12;94435.47;;;5.24;56.05
19783;BME280;10051;40.294;-3.754;2023-01-19T09:12:38;94504.50;;;5.89;55.66
19783;BME280;10051;40.294;-3.754;2023-01-19T09:15:04;94392.00;;;5.29;55.13
19783;BME280;10051;40.294;-3.754;2023-01-19T09:17:30;94484.97;;;5.92;54.69
19783;BME280;10051;40.294;-3.754;2023-01-19T09:19:59;94403.69;;;5.44;54.46
19783;BME280;10051;40.294;-3.754;2023-01-19T09:22:24;94480.75;;;6.08;54.28
19783;BME280;10051;40.294;-3.754;2023-01-19T09:24:50;94463.09;;;6.15;53.91
19783;BME280;10051;40.294;-3.754;2023-01-19T09:27:15;94466.44;;;6.33;52.90
19783;BME280;10051;40.294;-3.754;2023-01-19T09:29:41;94511.75;;;6.66;52.00
19783;BME280;10051;40.294;-3.754;2023-01-19T09:32:08;94388.53;;;6.02;51.86
19783;BME280;10051;40.294;-3.754;2023-01-19T09:34:35;94478.41;;;6.51;51.48
19783;BME280;10051;40.294;-3.754;2023-01-19T09:37:01;94457.97;;;6.48;51.43
19783;BME280;10051;40.294;-3.754;2023-01-19T09:39:28;94460.72;;;6.58;51.17
19783;BME280;10051;40.294;-3.754;2023-01-19T09:42:01;94457.06;;;6.59;50.78
19783;BME280;10051;40.294;-3.754;2023-01-19T09:44:33;94409.63;;;6.23;50.80
19783;BME280;10051;40.294;-3.754;2023-01-19T09:47:02;94482.16;;;6.88;50.91
19783;BME280;10051;40.294;-3.754;2023-01-19T09:49:40;94486.72;;;6.97;51.02
19783;BME280;10051;40.294;-3.754;2023-01-19T09:52:12;94481.75;;;7.01;50.77
19783;BME280;10051;40.294;-3.754;2023-01-19T09:57:17;94534.97;;;7.44;49.95
19783;BME280;10051;40.294;-3.754;2023-01-19T09:59:43;94493.50;;;7.26;49.47
19783;BME280;10051;40.294;-3.754;2023-01-19T10:04:40;94545.41;;;7.72;48.80
19783;BME280;10051;40.294;-3.754;2023-01-19T10:10:15;94521.03;;;7.66;48.13
19783;BME280;10051;40.294;-3.754;2023-01-19T10:15:51;94548.44;;;7.96;48.63
19783;BME280;10051;40.294;-3.754;2023-01-19T10:18:45;94554.84;;;8.11;48.43
19783;BME280;10051;40.294;-3.754;2023-01-19T10:21:28;94560.78;;;8.01;48.86
19783;BME280;10051;40.294;-3.754;2023-01-19T10:26:41;94564.00;;;8.13;49.98
19783;BME280;10051;40.294;-3.754;2023-01-19T10:31:48;94549.69;;;7.83;51.38
19783;BME280;10051;40.294;-3.754;2023-01-19T10:34:16;94498.22;;;7.29;52.73
19783;BME280;10051;40.294;-3.754;2023-01-19T10:36:48;94563.44;;;7.68;52.30
19783;BME280;10051;40.294;-3.754;2023-01-19T10:39:16;94506.44;;;7.10;53.13
19783;BME280;10051;40.294;-3.754;2023-01-19T10:41:49;94561.19;;;7.50;52.29
19783;BME280;10051;40.294;-3.754;2023-01-19T10:44:27;94510.63;;;7.11;52.91
19783;BME280;10051;40.294;-3.754;2023-01-19T10:46:55;94527.94;;;7.18;53.30
19783;BME280;10051;40.294;-3.754;2023-01-19T10:49:36;94566.91;;;7.47;52.79
19783;BME280;10051;40.294;-3.754;2023-01-19T10:52:04;94515.09;;;7.16;52.44
19783;BME280;10051;40.294;-3.754;2023-01-19T10:54:32;94561.78;;;7.57;52.70
19783;BME280;10051;40.294;-3.754;2023-01-19T10:57:03;94560.03;;;7.68;52.38
19783;BME280;10051;40.294;-3.754;2023-01-19T10:59:47;94548.72;;;7.62;51.81
19783;BME280;10051;40.294;-3.754;2023-01-19T11:04:43;94553.16;;;7.94;49.71
19783;BME280;10051;40.294;-3.754;2023-01-19T11:07:20;94503.78;;;7.76;50.52
19783;BME280;10051;40.294;-3.754;2023-01-19T11:09:47;94504.97;;;7.95;51.11
19783;BME280;10051;40.294;-3.754;2023-01-19T11:12:21;94499.81;;;8.11;50.34
19783;BME280;10051;40.294;-3.754;2023-01-19T11:14:49;94532.53;;;8.51;50.70
19783;BME280;10051;40.294;-3.754;2023-01-19T11:17:21;94529.28;;;8.39;51.60
19783;BME280;10051;40.294;-3.754;2023-01-19T11:19:59;94513.06;;;8.42;51.12
19783;BME280;10051;40.294;-3.754;2023-01-19T11:22:31;94480.56;;;8.43;52.30
19783;BME280;10051;40.294;-3.754;2023-01-19T11:24:59;94504.78;;;8.66;53.15
19783;BME280;10051;40.294;-3.754;2023-01-19T11:27:25;94520.28;;;8.67;53.38
19783;BME280;10051;40.294;-3.754;2023-01-19T11:30:02;94506.81;;;8.48;53.79
19783;BME280;10051;40.294;-3.754;2023-01-19T11:32:34;94483.56;;;8.09;54.27
19783;BME280;10051;40.294;-3.754;2023-01-19T11:35:26;94478.88;;;8.11;52.20
19783;BME280;10051;40.294;-3.754;2023-01-19T11:37:48;94482.56;;;8.15;49.20
19783;BME280;10051;40.294;-3.754;2023-01-19T11:40:14;94487.28;;;8.23;47.46
19783;BME280;10051;40.294;-3.754;2023-01-19T11:42:40;94453.16;;;8.02;47.14
19783;BME280;10051;40.294;-3.754;2023-01-19T11:45:12;94481.00;;;8.24;47.85
19783;BME280;10051;40.294;-3.754;2023-01-19T11:47:46;94464.28;;;8.30;48.35
19783;BME280;10051;40.294;-3.754;2023-01-19T11:50:28;94337.25;;;7.59;48.58
19783;BME280;10051;40.294;-3.754;2023-01-19T11:53:05;94450.97;;;8.37;47.41
19783;BME280;10051;40.294;-3.754;2023-01-19T11:58:08;94442.72;;;8.82;46.83
19783;BME280;10051;40.294;-3.754;2023-01-19T12:05:50;94355.88;;;9.09;45.27
19783;BME280;10051;40.294;-3.754;2023-01-19T12:08:24;94318.13;;;9.00;44.39
19783;BME280;10051;40.294;-3.754;2023-01-19T12:10:56;94391.03;;;9.44;44.13
19783;BME280;10051;40.294;-3.754;2023-01-19T12:13:25;94347.00;;;9.05;44.74
19783;BME280;10051;40.294;-3.754;2023-01-19T12:16:12;94393.41;;;9.25;44.86
19783;BME280;10051;40.294;-3.754;2023-01-19T12:18:48;94412.03;;;9.23;44.81
19783;BME280;10051;40.294;-3.754;2023-01-19T12:21:17;94371.91;;;8.97;44.66
19783;BME280;10051;40.294;-3.754;2023-01-19T12:23:52;94418.59;;;9.11;44.52
19783;BME280;10051;40.294;-3.754;2023-01-19T12:26:30;94398.38;;;8.90;44.32
19783;BME280;10051;40.294;-3.754;2023-01-19T12:29:10;94405.72;;;8.88;44.35
19783;BME280;10051;40.294;-3.754;2023-01-19T12:31:36;94396.25;;;8.67;44.58
19783;BME280;10051;40.294;-3.754;2023-01-19T12:34:37;94399.41;;;8.53;45.60
19783;BME280;10051;40.294;-3.754;2023-01-19T12:37:05;94391.50;;;8.48;46.36
19783;BME280;10051;40.294;-3.754;2023-01-19T12:39:32;94386.22;;;8.38;46.95
19783;BME280;10051;40.294;-3.754;2023-01-19T12:42:16;94353.16;;;8.16;47.93
19783;BME280;10051;40.294;-3.754;2023-01-19T12:44:43;94379.38;;;8.26;49.76
19783;BME280;10051;40.294;-3.754;2023-01-19T12:57:49;94353.78;;;8.49;52.11
19783;BME280;10051;40.294;-3.754;2023-01-19T13:02:51;94281.97;;;8.55;52.17
19783;BME280;10051;40.294;-3.754;2023-01-19T13:13:21;94318.13;;;8.69;49.88
19783;BME280;10051;40.294;-3.754;2023-01-19T13:15:47;94305.03;;;8.53;50.76
19783;BME280;10051;40.294;-3.754;2023-01-19T13:18:21;94319.97;;;8.63;51.51
19783;BME280;10051;40.294;-3.754;2023-01-19T13:20:55;94221.91;;;7.92;50.99
19783;BME280;10051;40.294;-3.754;2023-01-19T13:23:23;94315.00;;;8.56;52.21
19783;BME280;10051;40.294;-3.754;2023-01-19T13:26:02;94289.53;;;8.36;52.13
19783;BME280;10051;40.294;-3.754;2023-01-19T13:28:36;94299.75;;;8.32;52.17
19783;BME280;10051;40.294;-3.754;2023-01-19T13:31:03;94246.25;;;7.92;52.72
19783;BME280;10051;40.294;-3.754;2023-01-19T13:33:41;94286.91;;;8.21;52.67
19783;BME280;10051;40.294;-3.754;2023-01-19T13:36:20;94248.31;;;7.85;52.80
19783;BME280;10051;40.294;-3.754;2023-01-19T13:38:49;94285.56;;;8.02;53.06
19783;BME280;10051;40.294;-3.754;2023-01-19T13:41:18;94247.53;;;7.74;52.51
19783;BME280;10051;40.294;-3.754;2023-01-19T13:43:45;94264.53;;;7.77;53.33
19783;BME280;10051;40.294;-3.754;2023-01-19T13:46:12;94205.25;;;7.34;53.62
19783;BME280;10051;40.294;-3.754;2023-01-19T13:48:39;94288.41;;;7.91;54.24
19783;BME280;10051;40.294;-3.754;2023-01-19T13:51:17;94208.94;;;7.38;54.04
19783;BME280;10051;40.294;-3.754;2023-01-19T13:53:56;94281.31;;;7.81;54.48
19783;BME280;10051;40.294;-3.754;2023-01-19T13:56:24;94299.13;;;7.89;54.93
19783;BME280;10051;40.294;-3.754;2023-01-19T13:59:02;94254.03;;;7.61;55.00
19783;BME280;10051;40.294;-3.754;2023-01-19T14:01:30;94256.38;;;7.63;55.58
19783;BME280;10051;40.294;-3.754;2023-01-19T14:03:57;94244.06;;;7.58;55.92
19783;BME280;10051;40.294;-3.754;2023-01-19T14:06:30;94278.69;;;7.81;56.43
19783;BME280;10051;40.294;-3.754;2023-01-19T14:09:16;94280.53;;;7.85;55.08
19783;BME280;10051;40.294;-3.754;2023-01-19T14:11:44;94234.16;;;7.65;54.88
19783;BME280;10051;40.294;-3.754;2023-01-19T14:14:31;94214.47;;;7.52;54.11
19783;BME280;10051;40.294;-3.754;2023-01-19T14:16:57;94207.97;;;7.55;54.43